sensor_id;sensor_type;location;lat;lon;timestamp;P1;durP1;ratioP1;P2;durP2;ratioP2
3791;SDS011;1911;53.768;11.474;2023-12-20T00:00:51;4.17;;;1.80;;
3791;SDS011;1911;53.768;11.474;2023-12-20T00:03:17;7.20;;;1.50;;
3791;SDS011;1911;53.768;11.474;2023-12-20T00:05:42;2.90;;;1.57;;
3791;SDS011;1911;53.768;11.474;2023-12-20T00:08:08;2.83;;;1.70;;
3791;SDS011;1911;53.768;11.474;2023-12-20T00:10:34;3.90;;;1.67;;
3791;SDS011;1911;53.768;11.474;2023-12-20T00:13:00;5.83;;;1.70;;
3791;SDS011;1911;53.768;11.474;2023-12-20T00:15:25;11.67;;;1.43;;
3791;SDS011;1911;53.768;11.474;2023-12-20T00:17:51;11.30;;;1.47;;
3791;SDS011;1911;53.768;11.474;2023-12-20T00:20:16;5.57;;;1.37;;
3791;SDS011;1911;53.768;11.474;2023-12-20T00:22:42;4.93;;;1.60;;
3791;SDS011;1911;53.768;11.474;2023-12-20T00:25:07;2.27;;;1.30;;
3791;SDS011;1911;53.768;11.474;2023-12-20T00:27:33;10.53;;;1.77;;
3791;SDS011;1911;53.768;11.474;2023-12-20T00:29:59;3.93;;;2.10;;
3791;SDS011;1911;53.768;11.474;2023-12-20T00:32:25;5.17;;;1.60;;
3791;SDS011;1911;53.768;11.474;2023-12-20T00:34:50;12.53;;;2.10;;
3791;SDS011;1911;53.768;11.474;2023-12-20T00:37:16;3.80;;;1.83;;
3791;SDS011;1911;53.768;11.474;2023-12-20T00:39:41;13.43;;;2.30;;
3791;SDS011;1911;53.768;11.474;2023-12-20T00:42:07;5.90;;;1.90;;
3791;SDS011;1911;53.768;11.474;2023-12-20T00:44:33;9.30;;;1.20;;
3791;SDS011;1911;53.768;11.474;2023-12-20T00:46:58;7.20;;;1.30;;
3791;SDS011;1911;53.768;11.474;2023-12-20T00:49:24;2.83;;;0.93;;
3791;SDS011;1911;53.768;11.474;2023-12-20T00:51:49;6.20;;;1.27;;
3791;SDS011;1911;53.768;11.474;2023-12-20T00:54:17;10.47;;;1.40;;
3791;SDS011;1911;53.768;11.474;2023-12-20T00:56:43;7.00;;;2.17;;
3791;SDS011;1911;53.768;11.474;2023-12-20T00:59:09;7.70;;;2.53;;
3791;SDS011;1911;53.768;11.474;2023-12-20T01:01:34;9.53;;;3.27;;
3791;SDS011;1911;53.768;11.474;2023-12-20T01:04:00;11.63;;;2.40;;
3791;SDS011;1911;53.768;11.474;2023-12-20T01:06:26;11.57;;;3.40;;
3791;SDS011;1911;53.768;11.474;2023-12-20T01:08:51;8.80;;;3.30;;
3791;SDS011;1911;53.768;11.474;2023-12-20T01:11:17;8.70;;;2.70;;
3791;SDS011;1911;53.768;11.474;2023-12-20T01:13:42;9.93;;;2.80;;
3791;SDS011;1911;53.768;11.474;2023-12-20T01:16:09;20.10;;;3.23;;
3791;SDS011;1911;53.768;11.474;2023-12-20T01:18:36;14.40;;;2.70;;
3791;SDS011;1911;53.768;11.474;2023-12-20T01:21:02;9.23;;;2.63;;
3791;SDS011;1911;53.768;11.474;2023-12-20T01:23:32;18.37;;;3.30;;
3791;SDS011;1911;53.768;11.474;2023-12-20T01:25:58;10.17;;;2.30;;
3791;SDS011;1911;53.768;11.474;2023-12-20T01:28:25;13.03;;;3.30;;
3791;SDS011;1911;53.768;11.474;2023-12-20T01:30:50;19.53;;;2.60;;
3791;SDS011;1911;53.768;11.474;2023-12-20T01:33:16;6.37;;;1.70;;
3791;SDS011;1911;53.768;11.474;2023-12-20T01:35:42;9.93;;;1.90;;
3791;SDS011;1911;53.768;11.474;2023-12-20T01:38:07;10.97;;;2.10;;
3791;SDS011;1911;53.768;11.474;2023-12-20T01:40:33;26.87;;;3.00;;
3791;SDS011;1911;53.768;11.474;2023-12-20T01:43:07;14.23;;;2.10;;
3791;SDS011;1911;53.768;11.474;2023-12-20T01:45:33;16.93;;;1.90;;
3791;SDS011;1911;53.768;11.474;2023-12-20T01:47:59;13.63;;;2.03;;
3791;SDS011;1911;53.768;11.474;2023-12-20T01:50:27;7.60;;;1.60;;
3791;SDS011;1911;53.768;11.474;2023-12-20T01:52:53;18.40;;;3.13;;
3791;SDS011;1911;53.768;11.474;2023-12-20T01:55:22;15.30;;;2.03;;
3791;SDS011;1911;53.768;11.474;2023-12-20T01:57:51;12.57;;;2.20;;
3791;SDS011;1911;53.768;11.474;2023-12-20T02:00:17;13.33;;;2.53;;
3791;SDS011;1911;53.768;11.474;2023-12-20T02:02:45;14.13;;;1.80;;
3791;SDS011;1911;53.768;11.474;2023-12-20T02:05:11;28.00;;;2.83;;
3791;SDS011;1911;53.768;11.474;2023-12-20T02:07:38;9.53;;;1.80;;
3791;SDS011;1911;53.768;11.474;2023-12-20T02:10:03;8.30;;;2.23;;
3791;SDS011;1911;53.768;11.474;2023-12-20T02:12:29;13.53;;;2.00;;
3791;SDS011;1911;53.768;11.474;2023-12-20T02:14:55;12.40;;;2.60;;
3791;SDS011;1911;53.768;11.474;2023-12-20T02:17:21;11.50;;;2.20;;
3791;SDS011;1911;53.768;11.474;2023-12-20T02:19:48;12.43;;;2.20;;
3791;SDS011;1911;53.768;11.474;2023-12-20T02:22:14;22.53;;;2.80;;
3791;SDS011;1911;53.768;11.474;2023-12-20T02:24:40;12.50;;;2.33;;
3791;SDS011;1911;53.768;11.474;2023-12-20T02:27:05;13.67;;;2.67;;
3791;SDS011;1911;53.768;11.474;2023-12-20T02:29:35;9.40;;;2.43;;
3791;SDS011;1911;53.768;11.474;2023-12-20T02:32:01;14.60;;;2.87;;
3791;SDS011;1911;53.768;11.474;2023-12-20T02:34:27;7.73;;;1.97;;
3791;SDS011;1911;53.768;11.474;2023-12-20T02:36:53;6.87;;;2.90;;
3791;SDS011;1911;53.768;11.474;2023-12-20T02:39:19;25.47;;;3.43;;
3791;SDS011;1911;53.768;11.474;2023-12-20T02:41:44;8.97;;;3.70;;
3791;SDS011;1911;53.768;11.474;2023-12-20T02:44:10;11.83;;;1.67;;
3791;SDS011;1911;53.768;11.474;2023-12-20T02:46:36;15.53;;;3.10;;
3791;SDS011;1911;53.768;11.474;2023-12-20T02:49:01;13.43;;;2.23;;
3791;SDS011;1911;53.768;11.474;2023-12-20T02:51:27;11.87;;;2.40;;
3791;SDS011;1911;53.768;11.474;2023-12-20T02:53:52;12.57;;;4.90;;
3791;SDS011;1911;53.768;11.474;2023-12-20T02:56:18;14.93;;;2.70;;
3791;SDS011;1911;53.768;11.474;2023-12-20T02:58:44;17.77;;;2.83;;
3791;SDS011;1911;53.768;11.474;2023-12-20T03:01:09;8.37;;;1.83;;
3791;SDS011;1911;53.768;11.474;2023-12-20T03:03:35;14.67;;;2.67;;
3791;SDS011;1911;53.768;11.474;2023-12-20T03:06:00;7.43;;;2.67;;
3791;SDS011;1911;53.768;11.474;2023-12-20T03:08:26;6.30;;;3.13;;
3791;SDS011;1911;53.768;11.474;2023-12-20T03:10:52;8.37;;;2.10;;
3791;SDS011;1911;53.768;11.474;2023-12-20T03:13:18;12.80;;;3.40;;
3791;SDS011;1911;53.768;11.474;2023-12-20T03:15:44;13.53;;;3.33;;
3791;SDS011;1911;53.768;11.474;2023-12-20T03:18:10;3.80;;;1.93;;
3791;SDS011;1911;53.768;11.474;2023-12-20T03:20:36;11.73;;;3.20;;
3791;SDS011;1911;53.768;11.474;2023-12-20T03:23:01;7.97;;;2.50;;
3791;SDS011;1911;53.768;11.474;2023-12-20T03:25:27;9.43;;;2.13;;
3791;SDS011;1911;53.768;11.474;2023-12-20T03:27:53;17.43;;;2.80;;
3791;SDS011;1911;53.768;11.474;2023-12-20T03:30:18;13.33;;;3.73;;
3791;SDS011;1911;53.768;11.474;2023-12-20T03:32:44;7.60;;;2.67;;
3791;SDS011;1911;53.768;11.474;2023-12-20T03:35:10;14.87;;;2.37;;
3791;SDS011;1911;53.768;11.474;2023-12-20T03:37:36;10.53;;;3.00;;
3791;SDS011;1911;53.768;11.474;2023-12-20T03:40:02;16.27;;;3.37;;
3791;SDS011;1911;53.768;11.474;2023-12-20T03:42:28;11.40;;;3.17;;
3791;SDS011;1911;53.768;11.474;2023-12-20T03:44:54;19.90;;;3.50;;
3791;SDS011;1911;53.768;11.474;2023-12-20T03:47:19;12.07;;;3.30;;
3791;SDS011;1911;53.768;11.474;2023-12-20T03:49:45;9.23;;;2.90;;
3791;SDS011;1911;53.768;11.474;2023-12-20T03:52:10;15.10;;;3.40;;
3791;SDS011;1911;53.768;11.474;2023-12-20T03:54:37;11.60;;;3.17;;
3791;SDS011;1911;53.768;11.474;2023-12-20T03:57:03;12.00;;;3.97;;
3791;SDS011;1911;53.768;11.474;2023-12-20T03:59:29;20.67;;;4.27;;
3791;SDS011;1911;53.768;11.474;2023-12-20T04:01:55;10.70;;;3.40;;
3791;SDS011;1911;53.768;11.474;2023-12-20T04:04:20;6.90;;;3.10;;
3791;SDS011;1911;53.768;11.474;2023-12-20T04:06:46;14.63;;;3.90;;
3791;SDS011;1911;53.768;11.474;2023-12-20T04:09:12;11.27;;;3.10;;
3791;SDS011;1911;53.768;11.474;2023-12-20T04:11:38;8.10;;;3.30;;
3791;SDS011;1911;53.768;11.474;2023-12-20T04:14:03;13.40;;;3.80;;
3791;SDS011;1911;53.768;11.474;2023-12-20T04:16:32;10.53;;;3.40;;
3791;SDS011;1911;53.768;11.474;2023-12-20T04:18:58;7.33;;;3.73;;
3791;SDS011;1911;53.768;11.474;2023-12-20T04:21:23;20.53;;;3.73;;
3791;SDS011;1911;53.768;11.474;2023-12-20T04:23:49;8.50;;;3.53;;
3791;SDS011;1911;53.768;11.474;2023-12-20T04:26:14;10.03;;;4.10;;
3791;SDS011;1911;53.768;11.474;2023-12-20T04:28:40;11.00;;;3.27;;
3791;SDS011;1911;53.768;11.474;2023-12-20T04:31:06;9.70;;;2.47;;
3791;SDS011;1911;53.768;11.474;2023-12-20T04:33:31;10.80;;;4.03;;
3791;SDS011;1911;53.768;11.474;2023-12-20T04:35:57;10.87;;;3.30;;
3791;SDS011;1911;53.768;11.474;2023-12-20T04:38:23;8.40;;;4.40;;
3791;SDS011;1911;53.768;11.474;2023-12-20T04:40:49;11.63;;;3.30;;
3791;SDS011;1911;53.768;11.474;2023-12-20T04:43:14;14.57;;;4.40;;
3791;SDS011;1911;53.768;11.474;2023-12-20T04:45:40;11.63;;;3.87;;
3791;SDS011;1911;53.768;11.474;2023-12-20T04:48:05;10.33;;;3.47;;
3791;SDS011;1911;53.768;11.474;2023-12-20T04:50:31;10.20;;;3.60;;
3791;SDS011;1911;53.768;11.474;2023-12-20T04:52:58;8.77;;;3.43;;
3791;SDS011;1911;53.768;11.474;2023-12-20T04:55:23;11.87;;;4.27;;
3791;SDS011;1911;53.768;11.474;2023-12-20T04:57:49;14.97;;;3.50;;
3791;SDS011;1911;53.768;11.474;2023-12-20T05:00:15;7.93;;;3.63;;
3791;SDS011;1911;53.768;11.474;2023-12-20T05:02:40;16.40;;;4.30;;
3791;SDS011;1911;53.768;11.474;2023-12-20T05:05:06;9.10;;;4.57;;
3791;SDS011;1911;53.768;11.474;2023-12-20T05:07:32;10.70;;;4.87;;
3791;SDS011;1911;53.768;11.474;2023-12-20T05:09:58;15.40;;;4.67;;
3791;SDS011;1911;53.768;11.474;2023-12-20T05:12:24;16.40;;;3.70;;
3791;SDS011;1911;53.768;11.474;2023-12-20T05:14:50;14.83;;;3.77;;
3791;SDS011;1911;53.768;11.474;2023-12-20T05:17:16;15.23;;;4.57;;
3791;SDS011;1911;53.768;11.474;2023-12-20T05:19:42;11.50;;;3.63;;
3791;SDS011;1911;53.768;11.474;2023-12-20T05:22:08;8.03;;;3.97;;
3791;SDS011;1911;53.768;11.474;2023-12-20T05:24:33;10.63;;;4.47;;
3791;SDS011;1911;53.768;11.474;2023-12-20T05:26:59;9.27;;;4.80;;
3791;SDS011;1911;53.768;11.474;2023-12-20T05:29:25;11.33;;;5.30;;
3791;SDS011;1911;53.768;11.474;2023-12-20T05:31:50;15.20;;;5.90;;
3791;SDS011;1911;53.768;11.474;2023-12-20T05:34:16;14.00;;;4.10;;
3791;SDS011;1911;53.768;11.474;2023-12-20T05:36:41;18.67;;;5.70;;
3791;SDS011;1911;53.768;11.474;2023-12-20T05:39:07;12.50;;;3.90;;
3791;SDS011;1911;53.768;11.474;2023-12-20T05:41:33;13.17;;;3.57;;
3791;SDS011;1911;53.768;11.474;2023-12-20T05:43:58;18.13;;;4.33;;
3791;SDS011;1911;53.768;11.474;2023-12-20T05:46:24;10.33;;;2.90;;
3791;SDS011;1911;53.768;11.474;2023-12-20T05:48:50;10.60;;;3.63;;
3791;SDS011;1911;53.768;11.474;2023-12-20T05:51:16;13.13;;;3.30;;
3791;SDS011;1911;53.768;11.474;2023-12-20T05:53:42;5.30;;;3.47;;
3791;SDS011;1911;53.768;11.474;2023-12-20T05:56:09;17.30;;;4.57;;
3791;SDS011;1911;53.768;11.474;2023-12-20T05:58:34;8.37;;;3.13;;
3791;SDS011;1911;53.768;11.474;2023-12-20T06:01:00;9.90;;;3.23;;
3791;SDS011;1911;53.768;11.474;2023-12-20T06:03:25;13.47;;;3.53;;
3791;SDS011;1911;53.768;11.474;2023-12-20T06:05:51;7.93;;;3.23;;
3791;SDS011;1911;53.768;11.474;2023-12-20T06:08:17;5.83;;;2.80;;
3791;SDS011;1911;53.768;11.474;2023-12-20T06:10:42;14.03;;;3.00;;
3791;SDS011;1911;53.768;11.474;2023-12-20T06:13:08;5.60;;;2.53;;
3791;SDS011;1911;53.768;11.474;2023-12-20T06:15:33;7.93;;;3.27;;
3791;SDS011;1911;53.768;11.474;2023-12-20T06:18:00;10.57;;;3.83;;
3791;SDS011;1911;53.768;11.474;2023-12-20T06:20:26;9.90;;;4.13;;
3791;SDS011;1911;53.768;11.474;2023-12-20T06:22:51;17.33;;;4.40;;
3791;SDS011;1911;53.768;11.474;2023-12-20T06:25:17;17.70;;;4.97;;
3791;SDS011;1911;53.768;11.474;2023-12-20T06:27:42;10.47;;;4.20;;
3791;SDS011;1911;53.768;11.474;2023-12-20T06:30:08;11.50;;;4.30;;
3791;SDS011;1911;53.768;11.474;2023-12-20T06:32:34;14.23;;;4.57;;
3791;SDS011;1911;53.768;11.474;2023-12-20T06:35:00;9.80;;;4.90;;
3791;SDS011;1911;53.768;11.474;2023-12-20T06:37:26;10.27;;;4.40;;
3791;SDS011;1911;53.768;11.474;2023-12-20T06:39:51;15.83;;;5.40;;
3791;SDS011;1911;53.768;11.474;2023-12-20T06:42:17;11.47;;;4.70;;
3791;SDS011;1911;53.768;11.474;2023-12-20T06:44:43;9.40;;;4.93;;
3791;SDS011;1911;53.768;11.474;2023-12-20T06:47:09;17.00;;;5.13;;
3791;SDS011;1911;53.768;11.474;2023-12-20T06:49:34;13.03;;;4.93;;
3791;SDS011;1911;53.768;11.474;2023-12-20T06:52:00;12.77;;;4.43;;
3791;SDS011;1911;53.768;11.474;2023-12-20T06:54:25;10.60;;;4.70;;
3791;SDS011;1911;53.768;11.474;2023-12-20T06:56:51;10.30;;;4.30;;
3791;SDS011;1911;53.768;11.474;2023-12-20T06:59:17;15.60;;;5.03;;
3791;SDS011;1911;53.768;11.474;2023-12-20T07:01:42;11.53;;;4.03;;
3791;SDS011;1911;53.768;11.474;2023-12-20T07:04:15;16.27;;;5.80;;
3791;SDS011;1911;53.768;11.474;2023-12-20T07:06:53;11.53;;;4.83;;
3791;SDS011;1911;53.768;11.474;2023-12-20T07:41:12;10.67;;;3.80;;
3791;SDS011;1911;53.768;11.474;2023-12-20T07:43:38;12.90;;;4.70;;
3791;SDS011;1911;53.768;11.474;2023-12-20T07:46:04;16.23;;;4.13;;
3791;SDS011;1911;53.768;11.474;2023-12-20T07:48:34;7.93;;;3.90;;
3791;SDS011;1911;53.768;11.474;2023-12-20T07:51:00;8.87;;;4.00;;
3791;SDS011;1911;53.768;11.474;2023-12-20T07:53:26;18.30;;;4.63;;
3791;SDS011;1911;53.768;11.474;2023-12-20T07:55:52;7.80;;;4.03;;
3791;SDS011;1911;53.768;11.474;2023-12-20T07:58:18;9.30;;;4.10;;
3791;SDS011;1911;53.768;11.474;2023-12-20T08:00:44;9.20;;;3.90;;
3791;SDS011;1911;53.768;11.474;2023-12-20T08:03:09;7.77;;;4.33;;
3791;SDS011;1911;53.768;11.474;2023-12-20T08:05:35;13.53;;;5.07;;
3791;SDS011;1911;53.768;11.474;2023-12-20T08:08:01;14.53;;;5.90;;
3791;SDS011;1911;53.768;11.474;2023-12-20T08:10:26;12.70;;;4.47;;
3791;SDS011;1911;53.768;11.474;2023-12-20T08:12:55;19.40;;;5.00;;
3791;SDS011;1911;53.768;11.474;2023-12-20T08:15:20;12.10;;;3.90;;
3791;SDS011;1911;53.768;11.474;2023-12-20T08:17:46;11.70;;;4.20;;
3791;SDS011;1911;53.768;11.474;2023-12-20T08:20:11;13.90;;;4.00;;
3791;SDS011;1911;53.768;11.474;2023-12-20T08:22:37;13.47;;;3.40;;
3791;SDS011;1911;53.768;11.474;2023-12-20T08:25:03;13.87;;;4.43;;
3791;SDS011;1911;53.768;11.474;2023-12-20T08:27:29;21.90;;;5.87;;
3791;SDS011;1911;53.768;11.474;2023-12-20T08:29:56;21.90;;;4.53;;
3791;SDS011;1911;53.768;11.474;2023-12-20T08:32:24;9.47;;;3.53;;
3791;SDS011;1911;53.768;11.474;2023-12-20T08:34:51;9.83;;;3.93;;
3791;SDS011;1911;53.768;11.474;2023-12-20T08:37:17;15.80;;;3.43;;
3791;SDS011;1911;53.768;11.474;2023-12-20T08:39:42;8.87;;;4.17;;
3791;SDS011;1911;53.768;11.474;2023-12-20T08:42:09;14.87;;;3.30;;
3791;SDS011;1911;53.768;11.474;2023-12-20T08:44:34;16.17;;;3.63;;
3791;SDS011;1911;53.768;11.474;2023-12-20T08:47:00;15.30;;;4.77;;
3791;SDS011;1911;53.768;11.474;2023-12-20T08:49:25;12.77;;;4.13;;
3791;SDS011;1911;53.768;11.474;2023-12-20T08:51:51;9.23;;;2.83;;
3791;SDS011;1911;53.768;11.474;2023-12-20T08:54:16;11.53;;;3.07;;
3791;SDS011;1911;53.768;11.474;2023-12-20T08:56:44;10.40;;;4.07;;
3791;SDS011;1911;53.768;11.474;2023-12-20T08:59:09;11.30;;;3.63;;
3791;SDS011;1911;53.768;11.474;2023-12-20T09:01:35;13.20;;;3.40;;
3791;SDS011;1911;53.768;11.474;2023-12-20T09:04:00;15.03;;;3.87;;
3791;SDS011;1911;53.768;11.474;2023-12-20T09:06:26;14.53;;;3.60;;
3791;SDS011;1911;53.768;11.474;2023-12-20T09:08:51;13.63;;;3.60;;
3791;SDS011;1911;53.768;11.474;2023-12-20T09:11:17;11.10;;;3.60;;
3791;SDS011;1911;53.768;11.474;2023-12-20T09:13:43;10.33;;;3.60;;
3791;SDS011;1911;53.768;11.474;2023-12-20T09:16:09;9.30;;;3.47;;
3791;SDS011;1911;53.768;11.474;2023-12-20T09:18:35;9.50;;;4.50;;
3791;SDS011;1911;53.768;11.474;2023-12-20T09:21:00;12.60;;;3.97;;
3791;SDS011;1911;53.768;11.474;2023-12-20T09:23:27;10.30;;;3.53;;
3791;SDS011;1911;53.768;11.474;2023-12-20T09:25:52;10.93;;;3.13;;
3791;SDS011;1911;53.768;11.474;2023-12-20T09:28:18;10.77;;;3.93;;
3791;SDS011;1911;53.768;11.474;2023-12-20T09:30:44;16.40;;;5.27;;
3791;SDS011;1911;53.768;11.474;2023-12-20T09:33:11;14.47;;;3.53;;
3791;SDS011;1911;53.768;11.474;2023-12-20T09:35:37;10.03;;;4.07;;
3791;SDS011;1911;53.768;11.474;2023-12-20T09:38:02;10.10;;;3.73;;
3791;SDS011;1911;53.768;11.474;2023-12-20T09:40:28;20.63;;;3.53;;
3791;SDS011;1911;53.768;11.474;2023-12-20T09:42:57;9.93;;;3.60;;
3791;SDS011;1911;53.768;11.474;2023-12-20T09:45:23;16.17;;;4.00;;
3791;SDS011;1911;53.768;11.474;2023-12-20T09:47:50;11.23;;;4.83;;
3791;SDS011;1911;53.768;11.474;2023-12-20T09:50:20;11.93;;;3.53;;
3791;SDS011;1911;53.768;11.474;2023-12-20T09:52:50;11.00;;;3.60;;
3791;SDS011;1911;53.768;11.474;2023-12-20T09:55:17;8.83;;;3.37;;
3791;SDS011;1911;53.768;11.474;2023-12-20T09:57:44;7.70;;;3.27;;
3791;SDS011;1911;53.768;11.474;2023-12-20T10:00:11;5.90;;;2.90;;
3791;SDS011;1911;53.768;11.474;2023-12-20T10:02:38;10.50;;;3.87;;
3791;SDS011;1911;53.768;11.474;2023-12-20T10:05:10;16.37;;;3.83;;
3791;SDS011;1911;53.768;11.474;2023-12-20T10:07:41;5.77;;;2.57;;
3791;SDS011;1911;53.768;11.474;2023-12-20T10:10:06;11.13;;;4.87;;
3791;SDS011;1911;53.768;11.474;2023-12-20T10:12:33;9.17;;;2.83;;
3791;SDS011;1911;53.768;11.474;2023-12-20T10:14:59;9.40;;;4.20;;
3791;SDS011;1911;53.768;11.474;2023-12-20T10:17:25;10.27;;;2.97;;
3791;SDS011;1911;53.768;11.474;2023-12-20T10:19:54;9.37;;;2.97;;
3791;SDS011;1911;53.768;11.474;2023-12-20T10:22:19;11.97;;;3.83;;
3791;SDS011;1911;53.768;11.474;2023-12-20T10:24:46;9.30;;;2.50;;
3791;SDS011;1911;53.768;11.474;2023-12-20T10:27:12;5.03;;;2.10;;
3791;SDS011;1911;53.768;11.474;2023-12-20T10:29:37;12.60;;;2.93;;
3791;SDS011;1911;53.768;11.474;2023-12-20T10:32:22;9.03;;;3.00;;
3791;SDS011;1911;53.768;11.474;2023-12-20T10:34:53;3.93;;;1.40;;
3791;SDS011;1911;53.768;11.474;2023-12-20T10:37:19;7.33;;;2.30;;
3791;SDS011;1911;53.768;11.474;2023-12-20T10:39:52;3.70;;;1.27;;
3791;SDS011;1911;53.768;11.474;2023-12-20T10:42:21;1.90;;;1.40;;
3791;SDS011;1911;53.768;11.474;2023-12-20T10:44:48;1.60;;;0.87;;
3791;SDS011;1911;53.768;11.474;2023-12-20T10:47:15;2.83;;;0.80;;
3791;SDS011;1911;53.768;11.474;2023-12-20T10:49:42;4.30;;;1.70;;
3791;SDS011;1911;53.768;11.474;2023-12-20T10:52:09;1.97;;;0.80;;
3791;SDS011;1911;53.768;11.474;2023-12-20T10:54:37;2.20;;;0.83;;
3791;SDS011;1911;53.768;11.474;2023-12-20T10:57:06;2.80;;;1.00;;
3791;SDS011;1911;53.768;11.474;2023-12-20T10:59:38;3.10;;;1.57;;
3791;SDS011;1911;53.768;11.474;2023-12-20T11:02:05;1.93;;;0.97;;
3791;SDS011;1911;53.768;11.474;2023-12-20T11:04:35;2.70;;;0.70;;
3791;SDS011;1911;53.768;11.474;2023-12-20T11:07:24;1.30;;;0.80;;
3791;SDS011;1911;53.768;11.474;2023-12-20T11:09:58;4.10;;;0.73;;
3791;SDS011;1911;53.768;11.474;2023-12-20T11:15:06;3.00;;;0.73;;
3791;SDS011;1911;53.768;11.474;2023-12-20T11:17:32;3.30;;;0.90;;
3791;SDS011;1911;53.768;11.474;2023-12-20T11:22:24;3.57;;;2.30;;
3791;SDS011;1911;53.768;11.474;2023-12-20T11:24:51;3.17;;;0.73;;
3791;SDS011;1911;53.768;11.474;2023-12-20T11:27:18;1.10;;;0.70;;
3791;SDS011;1911;53.768;11.474;2023-12-20T11:29:50;4.10;;;0.87;;
3791;SDS011;1911;53.768;11.474;2023-12-20T11:34:55;2.57;;;1.10;;
3791;SDS011;1911;53.768;11.474;2023-12-20T11:37:30;3.40;;;0.77;;
3791;SDS011;1911;53.768;11.474;2023-12-20T11:40:00;1.40;;;0.63;;
3791;SDS011;1911;53.768;11.474;2023-12-20T11:42:27;3.57;;;1.10;;
3791;SDS011;1911;53.768;11.474;2023-12-20T11:44:57;2.80;;;1.00;;
3791;SDS011;1911;53.768;11.474;2023-12-20T11:47:22;1.30;;;0.70;;
3791;SDS011;1911;53.768;11.474;2023-12-20T11:49:48;3.33;;;1.17;;
3791;SDS011;1911;53.768;11.474;2023-12-20T11:52:14;1.83;;;0.70;;
3791;SDS011;1911;53.768;11.474;2023-12-20T11:54:39;4.53;;;0.93;;
3791;SDS011;1911;53.768;11.474;2023-12-20T11:57:05;5.93;;;1.40;;
3791;SDS011;1911;53.768;11.474;2023-12-20T11:59:31;2.87;;;1.33;;
3791;SDS011;1911;53.768;11.474;2023-12-20T12:01:56;8.10;;;0.90;;
3791;SDS011;1911;53.768;11.474;2023-12-20T12:04:25;6.03;;;1.30;;
3791;SDS011;1911;53.768;11.474;2023-12-20T12:06:52;2.70;;;0.90;;
3791;SDS011;1911;53.768;11.474;2023-12-20T12:09:17;10.50;;;0.90;;
3791;SDS011;1911;53.768;11.474;2023-12-20T12:11:43;3.90;;;0.80;;
3791;SDS011;1911;53.768;11.474;2023-12-20T12:14:09;1.87;;;0.70;;
3791;SDS011;1911;53.768;11.474;2023-12-20T12:16:35;5.60;;;1.33;;
3791;SDS011;1911;53.768;11.474;2023-12-20T12:19:00;4.30;;;1.10;;
3791;SDS011;1911;53.768;11.474;2023-12-20T12:21:26;1.60;;;0.80;;
3791;SDS011;1911;53.768;11.474;2023-12-20T12:23:52;3.83;;;1.17;;
3791;SDS011;1911;53.768;11.474;2023-12-20T12:26:18;4.93;;;1.30;;
3791;SDS011;1911;53.768;11.474;2023-12-20T12:28:43;2.70;;;0.80;;
3791;SDS011;1911;53.768;11.474;2023-12-20T12:31:15;1.27;;;0.50;;
3791;SDS011;1911;53.768;11.474;2023-12-20T12:33:41;5.47;;;0.73;;
3791;SDS011;1911;53.768;11.474;2023-12-20T12:36:07;1.77;;;0.70;;
3791;SDS011;1911;53.768;11.474;2023-12-20T12:38:33;4.43;;;1.03;;
3791;SDS011;1911;53.768;11.474;2023-12-20T12:40:59;3.03;;;0.93;;
3791;SDS011;1911;53.768;11.474;2023-12-20T12:43:25;2.67;;;0.87;;
3791;SDS011;1911;53.768;11.474;2023-12-20T12:45:51;7.13;;;1.30;;
3791;SDS011;1911;53.768;11.474;2023-12-20T12:48:17;7.13;;;1.77;;
3791;SDS011;1911;53.768;11.474;2023-12-20T12:50:43;6.63;;;0.83;;
3791;SDS011;1911;53.768;11.474;2023-12-20T12:53:10;3.03;;;1.00;;
3791;SDS011;1911;53.768;11.474;2023-12-20T12:55:35;3.30;;;1.30;;
3791;SDS011;1911;53.768;11.474;2023-12-20T12:58:01;4.23;;;1.00;;
3791;SDS011;1911;53.768;11.474;2023-12-20T13:00:27;3.70;;;1.27;;
3791;SDS011;1911;53.768;11.474;2023-12-20T13:02:52;7.33;;;1.23;;
3791;SDS011;1911;53.768;11.474;2023-12-20T13:05:18;3.30;;;0.87;;
3791;SDS011;1911;53.768;11.474;2023-12-20T13:07:44;6.73;;;1.40;;
3791;SDS011;1911;53.768;11.474;2023-12-20T13:10:10;9.17;;;1.07;;
3791;SDS011;1911;53.768;11.474;2023-12-20T13:12:36;4.10;;;1.10;;
3791;SDS011;1911;53.768;11.474;2023-12-20T13:15:02;9.13;;;1.30;;
3791;SDS011;1911;53.768;11.474;2023-12-20T13:17:28;5.17;;;1.30;;
3791;SDS011;1911;53.768;11.474;2023-12-20T13:19:54;3.77;;;1.03;;
3791;SDS011;1911;53.768;11.474;2023-12-20T13:22:20;8.83;;;1.23;;
3791;SDS011;1911;53.768;11.474;2023-12-20T13:24:45;4.87;;;1.47;;
3791;SDS011;1911;53.768;11.474;2023-12-20T13:27:11;4.80;;;1.00;;
3791;SDS011;1911;53.768;11.474;2023-12-20T13:29:37;8.07;;;1.83;;
3791;SDS011;1911;53.768;11.474;2023-12-20T13:32:02;9.40;;;2.40;;
3791;SDS011;1911;53.768;11.474;2023-12-20T13:34:28;10.53;;;2.20;;
3791;SDS011;1911;53.768;11.474;2023-12-20T13:36:54;10.63;;;2.10;;
3791;SDS011;1911;53.768;11.474;2023-12-20T13:39:20;4.90;;;1.60;;
3791;SDS011;1911;53.768;11.474;2023-12-20T13:41:46;7.00;;;2.20;;
3791;SDS011;1911;53.768;11.474;2023-12-20T13:44:12;13.20;;;2.93;;
3791;SDS011;1911;53.768;11.474;2023-12-20T13:46:40;10.40;;;1.60;;
3791;SDS011;1911;53.768;11.474;2023-12-20T13:49:08;8.00;;;2.30;;
3791;SDS011;1911;53.768;11.474;2023-12-20T13:51:34;3.33;;;1.17;;
3791;SDS011;1911;53.768;11.474;2023-12-20T13:54:00;8.80;;;1.73;;
3791;SDS011;1911;53.768;11.474;2023-12-20T13:56:25;11.70;;;2.20;;
3791;SDS011;1911;53.768;11.474;2023-12-20T13:58:51;9.90;;;2.37;;
3791;SDS011;1911;53.768;11.474;2023-12-20T14:01:17;7.70;;;1.60;;
3791;SDS011;1911;53.768;11.474;2023-12-20T14:03:42;8.23;;;2.43;;
3791;SDS011;1911;53.768;11.474;2023-12-20T14:06:08;12.07;;;2.20;;
3791;SDS011;1911;53.768;11.474;2023-12-20T14:08:34;6.47;;;1.90;;
3791;SDS011;1911;53.768;11.474;2023-12-20T14:11:02;8.67;;;2.50;;
3791;SDS011;1911;53.768;11.474;2023-12-20T14:13:27;4.77;;;1.63;;
3791;SDS011;1911;53.768;11.474;2023-12-20T14:15:53;24.83;;;2.87;;
3791;SDS011;1911;53.768;11.474;2023-12-20T14:18:19;8.33;;;1.80;;
3791;SDS011;1911;53.768;11.474;2023-12-20T14:20:45;11.73;;;2.53;;
3791;SDS011;1911;53.768;11.474;2023-12-20T14:23:12;19.23;;;3.37;;
3791;SDS011;1911;53.768;11.474;2023-12-20T14:25:40;14.20;;;3.03;;
3791;SDS011;1911;53.768;11.474;2023-12-20T14:28:06;14.30;;;3.23;;
3791;SDS011;1911;53.768;11.474;2023-12-20T14:30:32;11.33;;;2.83;;
3791;SDS011;1911;53.768;11.474;2023-12-20T14:32:58;15.73;;;3.00;;
3791;SDS011;1911;53.768;11.474;2023-12-20T14:35:24;10.70;;;2.80;;
3791;SDS011;1911;53.768;11.474;2023-12-20T14:37:49;8.67;;;2.27;;
3791;SDS011;1911;53.768;11.474;2023-12-20T14:40:15;14.93;;;2.90;;
3791;SDS011;1911;53.768;11.474;2023-12-20T14:42:42;13.53;;;3.10;;
3791;SDS011;1911;53.768;11.474;2023-12-20T14:45:08;13.30;;;3.57;;
3791;SDS011;1911;53.768;11.474;2023-12-20T14:47:34;14.03;;;4.00;;
3791;SDS011;1911;53.768;11.474;2023-12-20T14:50:03;7.87;;;2.43;;
3791;SDS011;1911;53.768;11.474;2023-12-20T14:52:30;26.30;;;5.90;;
3791;SDS011;1911;53.768;11.474;2023-12-20T14:54:58;13.03;;;3.87;;
3791;SDS011;1911;53.768;11.474;2023-12-20T14:57:24;14.57;;;3.67;;
3791;SDS011;1911;53.768;11.474;2023-12-20T14:59:51;17.00;;;5.97;;
3791;SDS011;1911;53.768;11.474;2023-12-20T15:02:17;12.97;;;3.57;;
3791;SDS011;1911;53.768;11.474;2023-12-20T15:04:42;20.43;;;5.20;;
3791;SDS011;1911;53.768;11.474;2023-12-20T15:07:08;27.77;;;4.80;;
3791;SDS011;1911;53.768;11.474;2023-12-20T15:09:33;15.60;;;4.50;;
3791;SDS011;1911;53.768;11.474;2023-12-20T15:11:59;20.90;;;3.50;;
3791;SDS011;1911;53.768;11.474;2023-12-20T15:14:25;15.97;;;3.73;;
3791;SDS011;1911;53.768;11.474;2023-12-20T15:16:53;12.23;;;3.53;;
3791;SDS011;1911;53.768;11.474;2023-12-20T15:19:20;11.63;;;3.50;;
3791;SDS011;1911;53.768;11.474;2023-12-20T15:21:45;16.77;;;3.90;;
3791;SDS011;1911;53.768;11.474;2023-12-20T15:24:11;11.67;;;3.60;;
3791;SDS011;1911;53.768;11.474;2023-12-20T15:26:41;33.43;;;4.80;;